• Join FlightAware (Why Join?)
  • Login
  • US Flag 
07:58AM EDT


 

Airport Tracker/Info


-or-


 

Live Flight TrackerFlight Track Log ✈ ASQ5958 ✈ 10-Apr-2013 ✈ KORD - KBNA

Flight Track Log - Related Links

Times and Time Zones

All times are in EDT time to prevent confusion due to time zone crossing. See the ASQ5958 flight status page for this flight to view local times or setup timezone preferences in your user account.

Time Position Orientation Groundspeed Altitude Reporting Facility
EDT Latitude Longitude Course Direction KTS MPH feet Rate Location/Type
08:28AM 42.0167 -87.8833 75° East 153 176 2,700  Level Chicago TRACON
08:29AM 42.0333 -87.8000 75° East 211 243 4,100 1,080 Climbing Chicago TRACON
08:31AM 42.0461 -87.6058 85° East 285 328 6,100 1,440 Climbing Chicago Center
08:32AM 42.0517 -87.4697 87° East 305 351 8,700 2,040 Climbing Chicago Center
08:33AM 42.0222 -87.3569 109° East 321 369 10,300 1,740 Climbing Chicago Center
08:34AM 41.9906 -87.2406 110° East 331 381 12,300 1,800 Climbing Chicago Center
08:35AM 41.9589 -87.1189 109° East 345 397 14,000 1,440 Climbing Chicago Center
08:36AM 41.9447 -86.9831 98° East 382 440 15,300 1,080 Climbing Chicago Center
08:37AM 41.9481 -86.8336 88° East 400 460 16,300 1,800 Climbing Chicago Center
08:38AM 41.9508 -86.6869 88° East 405 466 19,000 1,980 Climbing Chicago Center
08:39AM 41.9519 -86.5461 89° East 382 440 20,400 1,080 Climbing Chicago Center
08:40AM 41.9536 -86.3625 89° East 408 470 21,200 780 Climbing Chicago Center
08:41AM 41.9500 -86.2003 92° East 429 494 22,100 780 Climbing Chicago Center
08:42AM 41.9064 -86.0464 111° Southeast 438 504 22,800 1,020 Climbing Chicago Center
08:43AM 41.8822 -85.8856 101° East 443 510 24,200 1,020 Climbing Chicago Center
08:44AM 41.8744 -85.7208 94° East 441 507 25,000 780 Climbing Chicago Center
08:45AM 41.8536 -85.5553 100° East 446 513 25,900 1,260 Climbing Chicago Center
08:46AM 41.8222 -85.3972 105° East 431 496 27,600 1,320 Climbing Chicago Center
08:47AM 41.7900 -85.2436 106° East 422 486 28,700 1,140 Climbing Chicago Center
08:48AM 41.7589 -85.0897 105° East 424 488 30,000 1,320 Climbing Chicago Center
08:49AM 41.7450 -85.0169 104° East 433 498 30,600 1,380 Climbing Cleveland Center
08:50AM 41.7172 -84.8706 104° East 421 484 31,900 1,020 Climbing Cleveland Center
08:51AM 41.6831 -84.7208 107° East 416 479 32,700 540 Climbing Cleveland Center
08:52AM 41.6511 -84.5631 105° East 428 493 33,000 120 Climbing Cleveland Center
08:53AM 41.6128 -84.4050 108° East 438 504 33,000  Level Cleveland Center
08:53AM 41.5339 -84.3469 151° Southeast 437 503 33,000  Level Chicago Center
08:54AM 41.5064 -84.3406 170° South 383 441 33,000  Level Cleveland Center
08:55AM 41.4025 -84.3925 201° Southwest 335 386 33,000  Level Cleveland Center
08:55AM 41.3239 -84.4428 206° Southwest 401 461 33,000  Level Chicago Center
08:56AM 41.2208 -84.5036 204° Southwest 403 464 33,000  Level Chicago Center
08:59AM 41.0108 -84.6364 206° Southwest 387 445 33,000  Level Indianapolis Center
08:59AM 40.9692 -84.6658 208° Southwest 387 445 33,000  Level Chicago Center
09:00AM 40.8697 -84.7353 208° Southwest 394 453 33,000  Level Chicago Center
09:01AM 40.7681 -84.8119 210° Southwest 407 468 33,000  Level Chicago Center
09:02AM 40.6636 -84.8853 208° Southwest 420 483 33,000  Level Chicago Center
09:03AM 40.5792 -84.9303 202° Southwest 431 496 33,000  Level Indianapolis Center
09:04AM 40.4667 -84.9928 203° Southwest 433 498 33,000  Level Indianapolis Center
09:05AM 40.3542 -85.0550 203° Southwest 435 501 33,000  Level Indianapolis Center
09:06AM 40.2433 -85.1150 202° Southwest 431 496 33,000  Level Indianapolis Center
09:07AM 40.1311 -85.1758 203° Southwest 433 498 33,000 -60 Level Indianapolis Center
09:08AM 40.0169 -85.2378 203° Southwest 439 505 32,900  Descending Indianapolis Center
09:09AM 39.9011 -85.3000 202° Southwest 445 512 33,000  Climbing Indianapolis Center
09:10AM 39.7661 -85.3731 203° Southwest 447 514 33,000  Level Indianapolis Center
09:11AM 39.6500 -85.4344 202° Southwest 446 513 33,000  Level Indianapolis Center
09:12AM 39.5353 -85.4964 203° Southwest 444 511 33,000  Level Indianapolis Center
09:13AM 39.4225 -85.5564 202° Southwest 437 503 33,000  Level Indianapolis Center
09:14AM 39.3189 -85.6117 202° Southwest 429 494 33,000  Level Indianapolis Center
09:15AM 39.2081 -85.6711 203° Southwest 430 495 33,000 -420 Level Indianapolis Center
09:16AM 39.0700 -85.7414 202° Southwest 440 506 32,200 -900 Descending Indianapolis Center
09:17AM 38.9578 -85.7997 202° Southwest 434 499 31,200 -1,020 Descending Indianapolis Center
09:18AM 38.8486 -85.8583 203° Southwest 424 488 30,200 -600 Descending Indianapolis Center
09:19AM 38.7325 -85.8953 194° South 435 501 30,000 -120 Descending Indianapolis Center
09:20AM 38.6094 -85.9056 184° South 438 504 30,000  Level Indianapolis Center
09:21AM 38.4861 -85.9097 182° South 438 504 30,000  Level Indianapolis Center
09:22AM 38.3617 -85.8933 174° South 444 511 30,000  Level Indianapolis Center
09:23AM 38.2383 -85.8778 174° South 443 510 30,000  Level Indianapolis Center
09:24AM 38.1136 -85.8606 174° South 446 513 30,000  Level Indianapolis Center
09:25AM 37.9636 -85.8406 174° South 449 517 30,000 -240 Level Indianapolis Center
09:27AM 37.8400 -85.8250 174° South 445 512 29,600 -780 Descending Indianapolis Center
09:28AM 37.7150 -85.8089 174° South 446 513 28,500 -1,020 Descending Indianapolis Center
09:29AM 37.5897 -85.7939 175° South 450 518 27,500 -1,020 Descending Indianapolis Center
09:30AM 37.4633 -85.7769 174° South 451 519 26,500 -1,020 Descending Indianapolis Center
09:31AM 37.3411 -85.7619 174° South 442 509 25,400 -1,140 Descending Indianapolis Center
09:31AM 37.2819 -85.7561 176° South 442 509 24,900 -1,200 Descending Memphis Center
09:32AM 37.1628 -85.7419 175° South 442 509 23,800 -960 Descending Memphis Center
09:33AM 37.0436 -85.7333 177° South 435 501 23,000 -1,320 Descending Memphis Center
09:34AM 36.9344 -85.7683 194° South 403 464 21,200 -2,460 Descending Memphis Center
09:35AM 36.8300 -85.8183 201° Southwest 403 464 18,100 -2,760 Descending Memphis Center
09:36AM 36.7419 -85.8569 199° South 392 451 15,700 -2,700 Descending Memphis Center
09:37AM 36.6567 -85.9186 210° Southwest 376 433 12,800 -2,220 Descending Memphis Center
09:38AM 36.5931 -86.0100 229° Southwest 341 392 11,300 -900 Descending Memphis Center
09:39AM 36.5336 -86.0983 230° Southwest 341 392 11,000 -480 Descending Memphis Center
09:40AM 36.4781 -86.1814 230° Southwest 326 375 10,400 -1,020 Descending Memphis Center
09:41AM 36.4267 -86.2614 231° Southwest 288 331 9,000 -1,500 Descending Memphis Center
09:42AM 36.3806 -86.3256 228° Southwest 262 302 7,400 -1,620 Descending Memphis Center
09:43AM 36.3433 -86.3969 237° Southwest 257 296 5,800 -1,560 Descending Memphis Center
09:44AM 36.3081 -86.4656 237° Southwest 239 275 4,300 -1,380 Descending Memphis Center
09:45AM 36.2725 -86.5292 235° Southwest 239 275 3,100 -1,020 Descending Memphis Center
09:46AM 36.2369 -86.5925 235° Southwest 239 275 2,300 -600 Descending Memphis Center
09:47AM 36.2072 -86.6428 234° Southwest 214 246 1,900 -480 Descending Memphis Center
09:48AM 36.1786 -86.6647 212° Southwest 167 192 1,400 -600 Descending Memphis Center
09:49AM 36.1433 -86.6739 192° South 133 153 700 -420 Descending Memphis Center
09:50AM 36.1044 -86.6961 205° Southwest 133 153 600 -120 Descending Memphis Center
09:52AM 36.1167 -86.6667 39° Northeast  Level FlightAware Approximate
09:59AM 36.1245 -86.6782 39° Northeast  Level Estimated
10:00AM 36.1245 -86.6782 39° Northeast  Level Estimated
10:01AM 36.1245 -86.6782 39° Northeast  Level Estimated
10:02AM 36.1245 -86.6782 39° Northeast  Level Estimated
10:03AM 36.1245 -86.6782 39° Northeast  Level Estimated
10:04AM 36.1245 -86.6782 39° Northeast  Level Estimated
10:05AM 36.1245 -86.6782 39° Northeast  Level Estimated
10:06AM 36.1245 -86.6782 39° Northeast  Level Estimated
10:07AM 36.1245 -86.6782 39° Northeast  Level Estimated